Time;durP1;ratioP1;P1;durP2;ratioP2;P2;SDS_P1;SDS_P2;PMS_P1;PMS_P2;Temp;Humidity;BMP_temperature;BMP_pressure;BME280_temperature;BME280_humidity;BME280_pressure;Samples;Min_cycle;Max_cycle;Signal;HPM_P1;HPM_P2
2022/06/02 00:02:11;;;;;;;20.27;11.13;;;8.50;99.90;;;;;;5108555;28;20074;-75
2022/06/02 00:05:01;;;;;;;21.45;11.00;;;8.60;99.90;;;;;;5092545;28;20066;-77
2022/06/02 00:07:36;;;;;;;20.83;11.43;;;8.50;99.90;;;;;;5092803;28;20051;-76
2022/06/02 00:10:16;;;;;;;21.42;11.05;;;8.40;99.90;;;;;;5092002;28;20401;-76
2022/06/02 00:12:55;;;;;;;20.30;10.50;;;8.40;99.90;;;;;;5092127;28;20055;-76
2022/06/02 00:15:26;;;;;;;20.27;9.73;;;8.40;99.90;;;;;;5091732;28;20052;-76
2022/06/02 00:18:12;;;;;;;19.60;9.25;;;8.30;99.90;;;;;;5093083;28;20442;-76
2022/06/02 00:20:56;;;;;;;19.27;10.23;;;8.30;99.90;;;;;;5091569;28;20044;-76
2022/06/02 00:23:36;;;;;;;16.38;9.10;;;8.30;99.90;;;;;;5092661;28;20164;-76
2022/06/02 00:26:09;;;;;;;18.30;9.20;;;8.30;99.90;;;;;;5095101;28;20586;-76
2022/06/02 00:28:46;;;;;;;18.13;9.73;;;8.20;99.90;;;;;;5095885;28;20043;-77
2022/06/02 00:31:30;;;;;;;17.98;9.80;;;8.20;99.90;;;;;;5079527;28;20056;-76
2022/06/02 00:34:31;;;;;;;20.02;9.80;;;8.20;99.90;;;;;;5096930;28;20531;-76
2022/06/02 00:37:28;;;;;;;19.55;9.57;;;8.20;99.90;;;;;;5056509;28;20064;-77
2022/06/02 00:39:56;;;;;;;19.77;10.10;;;8.00;99.90;;;;;;5078614;28;20496;-75
2022/06/02 00:42:40;;;;;;;19.83;11.10;;;8.10;99.90;;;;;;5079968;28;20044;-75
2022/06/02 00:45:15;;;;;;;20.58;10.07;;;8.10;99.90;;;;;;5113284;28;20425;-77
2022/06/02 00:47:48;;;;;;;22.80;11.05;;;8.10;99.90;;;;;;5096353;28;20131;-77
2022/06/02 00:50:42;;;;;;;23.17;10.80;;;8.10;99.90;;;;;;5095207;28;20044;-76
2022/06/02 00:53:16;;;;;;;24.60;11.45;;;8.10;99.90;;;;;;5095573;28;20040;-77
2022/06/02 00:59:19;;;;;;;23.50;11.02;;;8.10;99.90;;;;;;5095351;28;20058;-78
2022/06/02 01:01:45;;;;;;;23.10;11.45;;;8.10;99.90;;;;;;5112622;28;20044;-76
2022/06/02 01:04:16;;;;;;;24.08;11.68;;;8.00;99.90;;;;;;5096397;28;20377;-76
2022/06/02 01:06:56;;;;;;;22.60;11.27;;;8.00;99.90;;;;;;5095939;28;20047;-76
2022/06/02 01:10:03;;;;;;;21.50;10.90;;;7.90;99.90;;;;;;5095639;28;20515;-75
2022/06/02 01:12:47;;;;;;;25.13;11.60;;;7.90;99.90;;;;;;5096921;28;20055;-76
2022/06/02 01:15:41;;;;;;;24.58;12.23;;;7.90;99.90;;;;;;5095849;28;20492;-76
2022/06/02 01:18:17;;;;;;;24.20;11.80;;;7.90;99.90;;;;;;5111547;28;20060;-75
2022/06/02 01:21:10;;;;;;;23.65;11.85;;;7.90;99.90;;;;;;5095035;28;20074;-77
2022/06/02 01:23:48;;;;;;;27.02;12.40;;;7.80;99.90;;;;;;5095659;28;20048;-77
2022/06/02 01:26:31;;;;;;;25.08;11.90;;;7.80;99.90;;;;;;5094914;28;20044;-77
2022/06/02 01:29:22;;;;;;;27.77;13.07;;;7.80;99.90;;;;;;5112301;28;20127;-77
2022/06/02 01:31:57;;;;;;;22.65;11.73;;;7.80;99.90;;;;;;5094867;28;20048;-77
2022/06/02 01:34:44;;;;;;;23.02;11.68;;;7.70;99.90;;;;;;5078381;28;20418;-76
2022/06/02 01:37:26;;;;;;;;;;;7.70;99.90;;;;;;5094218;28;20045;-77
2022/06/02 01:40:19;;;;;;;26.90;12.70;;;7.70;99.90;;;;;;5095286;28;19961;-77
2022/06/02 01:42:54;;;;;;;23.98;12.10;;;7.70;99.90;;;;;;5112099;28;20055;-77
2022/06/02 01:45:35;;;;;;;23.38;12.00;;;7.60;99.90;;;;;;5095700;28;20044;-76
2022/06/02 01:48:19;;;;;;;23.40;12.00;;;7.60;99.90;;;;;;5077418;28;20084;-77
2022/06/02 01:51:02;;;;;;;23.75;12.80;;;7.60;99.90;;;;;;5094138;28;20054;-76
2022/06/02 01:53:33;;;;;;;25.75;12.93;;;7.60;99.90;;;;;;5094878;28;20044;-76
2022/06/02 01:56:49;;;;;;;30.13;14.00;;;7.60;99.90;;;;;;5094062;28;20094;-76
2022/06/02 01:59:36;;;;;;;29.13;14.98;;;7.60;99.90;;;;;;5069201;28;20056;-77
2022/06/02 02:02:02;;;;;;;;;;;7.60;99.90;;;;;;5095773;28;20047;-76
2022/06/02 02:04:50;;;;;;;26.63;13.37;;;7.50;99.90;;;;;;5094048;28;20019;-77
2022/06/02 02:07:43;;;;;;;27.10;13.60;;;7.50;99.90;;;;;;5094845;28;20327;-77
2022/06/02 02:10:15;;;;;;;28.88;13.93;;;7.50;99.90;;;;;;5076929;28;20431;-77
2022/06/02 02:13:09;;;;;;;28.00;13.48;;;7.50;99.90;;;;;;5093440;28;20048;-75
2022/06/02 02:15:49;;;;;;;29.23;13.15;;;7.40;99.90;;;;;;5093859;28;20427;-75
2022/06/02 02:18:21;;;;;;;28.23;13.23;;;7.50;99.90;;;;;;5093013;28;20048;-74
2022/06/02 02:21:13;;;;;;;26.48;12.68;;;7.40;99.90;;;;;;5111210;28;20083;-75
2022/06/02 02:23:57;;;;;;;25.30;12.68;;;7.40;99.90;;;;;;5095126;28;20044;-75
2022/06/02 02:27:01;;;;;;;23.33;11.65;;;7.30;99.90;;;;;;5094191;28;20127;-75
2022/06/02 02:29:43;;;;;;;21.08;10.85;;;7.20;99.90;;;;;;5060262;28;20143;-74
2022/06/02 02:32:36;;;;;;;24.23;11.75;;;7.20;99.90;;;;;;5097636;28;20515;-74
2022/06/02 02:35:14;;;;;;;21.23;11.13;;;7.20;99.90;;;;;;5097079;28;20046;-75
2022/06/02 02:37:42;;;;;;;24.90;11.95;;;7.20;99.90;;;;;;5095823;28;20048;-75
2022/06/02 02:40:16;;;;;;;24.90;13.20;;;7.20;99.90;;;;;;5094291;28;20571;-75
2022/06/02 02:42:51;;;;;;;25.67;13.13;;;7.20;99.90;;;;;;5094763;28;20060;-74
2022/06/02 02:45:41;;;;;;;27.88;12.20;;;7.20;99.90;;;;;;5094315;28;20074;-75
2022/06/02 02:48:33;;;;;;;26.00;12.27;;;7.10;99.90;;;;;;5092568;28;20044;-75
2022/06/02 02:51:33;;;;;;;27.42;13.35;;;7.10;99.90;;;;;;5092978;28;20059;-76
2022/06/02 02:54:04;;;;;;;29.77;14.52;;;7.10;99.90;;;;;;5110474;28;20052;-76
2022/06/02 02:56:40;;;;;;;29.20;13.85;;;7.10;99.90;;;;;;5110181;28;20052;-75
2022/06/02 02:59:18;;;;;;;30.38;14.27;;;7.10;99.90;;;;;;5093602;28;20059;-76
2022/06/02 03:02:09;;;;;;;30.20;14.02;;;7.10;99.90;;;;;;5094139;28;20136;-76
2022/06/02 03:04:50;;;;;;;32.88;14.70;;;7.10;99.90;;;;;;5093739;28;20046;-76
2022/06/02 03:07:17;;;;;;;30.88;14.48;;;7.10;99.90;;;;;;5093180;28;20090;-75
2022/06/02 03:10:04;;;;;;;33.20;14.82;;;7.10;99.90;;;;;;5093337;28;20089;-75
2022/06/02 03:12:59;;;;;;;32.45;14.85;;;7.20;99.90;;;;;;5093284;28;20044;-75
2022/06/02 03:15:44;;;;;;;33.30;15.20;;;7.10;99.90;;;;;;5092851;28;20143;-75
2022/06/02 03:18:24;;;;;;;33.38;15.45;;;7.10;99.90;;;;;;5075923;28;20113;-74
2022/06/02 03:21:14;;;;;;;33.92;15.35;;;7.10;99.90;;;;;;5094259;28;20334;-76
2022/06/02 03:24:02;;;;;;;35.17;15.27;;;7.10;99.90;;;;;;5093220;28;20140;-75
2022/06/02 03:26:41;;;;;;;38.97;16.48;;;7.10;99.90;;;;;;5076041;28;20425;-74
2022/06/02 03:29:07;;;;;;;33.95;15.88;;;7.10;99.90;;;;;;5094450;28;20101;-75
2022/06/02 03:32:00;;;;;;;25.60;12.98;;;7.00;99.90;;;;;;5109789;28;20560;-75
2022/06/02 03:34:32;;;;;;;23.90;12.40;;;7.00;99.90;;;;;;5093498;28;20067;-75
2022/06/02 03:37:30;;;;;;;27.85;13.23;;;7.00;99.90;;;;;;5092597;28;20044;-76
2022/06/02 03:40:33;;;;;;;27.92;13.52;;;6.90;99.90;;;;;;5092677;28;20110;-75
2022/06/02 03:43:08;;;;;;;29.35;13.82;;;7.00;99.90;;;;;;5093488;28;20044;-75
2022/06/02 03:46:01;;;;;;;27.02;12.93;;;7.00;99.90;;;;;;5093295;28;20522;-76
2022/06/02 03:48:48;;;;;;;29.55;13.65;;;7.10;99.90;;;;;;5092205;28;20100;-76
2022/06/02 03:51:34;;;;;;;29.30;13.32;;;7.10;99.90;;;;;;5093223;28;20048;-77
2022/06/02 03:54:06;;;;;;;26.60;13.07;;;7.20;99.90;;;;;;5092160;28;20052;-75
2022/06/02 03:56:46;;;;;;;23.60;12.65;;;7.20;99.90;;;;;;5109740;28;20169;-76
2022/06/02 03:59:51;;;;;;;24.98;12.02;;;7.20;99.90;;;;;;5092701;28;20070;-76
2022/06/02 04:02:31;;;;;;;28.23;12.52;;;7.20;99.90;;;;;;5094532;28;20541;-76
2022/06/02 04:05:23;;;;;;;23.90;11.55;;;7.30;99.90;;;;;;5093345;28;20047;-75
2022/06/02 04:07:54;;;;;;;24.40;12.50;;;7.30;99.90;;;;;;5076908;28;20083;-76
2022/06/02 04:10:33;;;;;;;26.33;13.02;;;7.40;99.90;;;;;;5093763;28;20043;-75
2022/06/02 04:13:38;;;;;;;26.73;12.38;;;7.40;99.90;;;;;;5094094;28;20055;-75
2022/06/02 04:16:12;;;;;;;24.83;12.18;;;7.50;99.90;;;;;;5062843;28;20052;-75
2022/06/02 04:18:59;;;;;;;26.33;14.18;;;7.50;99.90;;;;;;5092153;28;20237;-75
2022/06/02 04:21:31;;;;;;;;;;;7.60;99.90;;;;;;5094391;28;20091;-75
2022/06/02 04:24:31;;;;;;;27.10;12.60;;;7.70;99.90;;;;;;5092494;28;19920;-74
2022/06/02 04:27:17;;;;;;;28.05;13.55;;;7.70;99.90;;;;;;5075947;28;20044;-74
2022/06/02 04:30:13;;;;;;;28.90;14.25;;;7.80;99.90;;;;;;5093155;28;20048;-74
2022/06/02 04:32:41;;;;;;;30.40;13.85;;;7.90;99.90;;;;;;5091950;28;20056;-74
2022/06/02 04:35:19;;;;;;;28.52;14.00;;;7.90;99.90;;;;;;5092130;28;20358;-74
2022/06/02 04:37:55;;;;;;;27.65;14.27;;;7.90;99.90;;;;;;5077566;28;20058;-75
2022/06/02 04:40:33;;;;;;;31.80;13.60;;;8.00;99.90;;;;;;5095433;28;20118;-75
2022/06/02 04:43:17;;;;;;;30.00;14.23;;;8.10;99.90;;;;;;5077184;28;20048;-75
2022/06/02 04:45:55;;;;;;;28.42;14.23;;;8.10;99.90;;;;;;5092993;28;20044;-75
2022/06/02 04:48:57;;;;;;;32.65;15.18;;;8.20;99.90;;;;;;5092489;28;20083;-76
2022/06/02 04:51:50;;;;;;;28.27;14.30;;;8.30;99.90;;;;;;5092529;28;20384;-75
2022/06/02 04:54:28;;;;;;;30.05;13.93;;;8.40;99.90;;;;;;5085804;28;20094;-75
2022/06/02 04:57:03;;;;;;;25.50;13.63;;;8.40;99.90;;;;;;5092463;28;20089;-75
2022/06/02 04:59:44;;;;;;;28.63;14.50;;;8.40;99.90;;;;;;5092760;28;20044;-75
2022/06/02 05:02:29;;;;;;;24.77;12.90;;;8.50;99.90;;;;;;5093127;28;20118;-75
2022/06/02 05:05:12;;;;;;;28.45;14.60;;;8.50;99.90;;;;;;5091997;28;20123;-75
2022/06/02 05:07:53;;;;;;;28.40;14.88;;;8.60;99.90;;;;;;5091183;28;20048;-74
2022/06/02 05:11:07;;;;;;;28.75;14.10;;;8.60;99.90;;;;;;5092232;28;20484;-75
2022/06/02 05:14:01;;;;;;;30.17;14.40;;;8.70;99.90;;;;;;5061426;28;20056;-74
2022/06/02 05:16:45;;;;;;;30.85;14.45;;;8.80;99.90;;;;;;5096221;28;20080;-75
2022/06/02 05:19:33;;;;;;;26.42;13.73;;;8.90;99.90;;;;;;5096245;28;20052;-74
2022/06/02 05:22:14;;;;;;;28.77;14.23;;;8.90;99.90;;;;;;5096213;28;20048;-75
2022/06/02 05:24:48;;;;;;;23.95;13.10;;;9.00;99.90;;;;;;5113210;28;20071;-76
2022/06/02 05:27:55;;;;;;;24.35;13.70;;;9.00;99.90;;;;;;5096807;28;20127;-76
2022/06/02 05:30:27;;;;;;;25.05;13.27;;;9.10;99.90;;;;;;5096494;28;20040;-74
2022/06/02 05:33:29;;;;;;;28.15;13.80;;;9.20;99.90;;;;;;5095619;28;20083;-75
2022/06/02 05:36:20;;;;;;;26.98;14.15;;;9.20;99.90;;;;;;5096352;28;20044;-75
2022/06/02 05:39:11;;;;;;;29.42;14.25;;;9.30;99.90;;;;;;5095734;28;20044;-74
2022/06/02 05:42:02;;;;;;;32.05;15.27;;;9.40;99.90;;;;;;5094288;28;20035;-74
2022/06/02 05:44:57;;;;;;;32.40;15.63;;;9.50;99.90;;;;;;5095211;28;20052;-74
2022/06/02 05:47:40;;;;;;;30.38;14.63;;;9.70;99.90;;;;;;5095549;28;20558;-74
2022/06/02 05:50:30;;;;;;;30.13;15.10;;;9.70;99.90;;;;;;5094993;28;20508;-74
2022/06/02 05:53:16;;;;;;;30.48;14.75;;;9.80;99.90;;;;;;5095178;28;20051;-74
2022/06/02 05:55:51;;;;;;;29.83;15.60;;;9.90;99.90;;;;;;5093410;28;20052;-75
2022/06/02 05:58:44;;;;;;;30.83;15.45;;;10.10;99.90;;;;;;5094055;28;20080;-74
2022/06/02 06:01:10;;;;;;;30.48;15.57;;;10.20;99.90;;;;;;5093680;28;20044;-73
2022/06/02 06:04:16;;;;;;;29.17;14.35;;;10.30;99.90;;;;;;5095151;28;20046;-74
2022/06/02 06:06:55;;;;;;;26.67;14.07;;;10.50;99.90;;;;;;5098286;28;20048;-74
2022/06/02 06:09:28;;;;;;;28.85;14.13;;;10.50;99.90;;;;;;5095995;28;20040;-73
2022/06/02 06:12:24;;;;;;;27.98;13.60;;;10.60;99.90;;;;;;5096461;28;20044;-74
2022/06/02 06:15:18;;;;;;;22.80;11.80;;;10.80;99.90;;;;;;5112031;28;20044;-74
2022/06/02 06:17:55;;;;;;;22.25;10.50;;;10.80;99.90;;;;;;5095356;28;20052;-75
2022/06/02 06:21:02;;;;;;;19.20;9.65;;;10.90;99.90;;;;;;5096751;28;20063;-75
2022/06/02 06:23:34;;;;;;;;;;;11.00;99.90;;;;;;5093546;28;20047;-75
2022/06/02 06:26:12;;;;;;;17.20;8.80;;;11.10;99.90;;;;;;5077304;28;19927;-75
2022/06/02 06:28:53;;;;;;;15.35;8.93;;;11.20;99.90;;;;;;5093989;28;20044;-74
2022/06/02 06:31:45;;;;;;;18.00;8.07;;;11.40;99.90;;;;;;5093979;28;20084;-73
2022/06/02 06:34:16;;;;;;;15.73;8.10;;;11.50;99.90;;;;;;5076590;28;20048;-76
2022/06/02 06:37:03;;;;;;;15.60;8.35;;;11.70;99.90;;;;;;5094087;28;20457;-75
2022/06/02 06:39:48;;;;;;;13.82;7.97;;;11.80;99.90;;;;;;5093590;28;20052;-75
2022/06/02 06:42:33;;;;;;;17.48;7.50;;;11.90;99.90;;;;;;5077116;28;20062;-75
2022/06/02 06:45:15;;;;;;;14.55;7.30;;;12.00;99.90;;;;;;5094788;28;20128;-74
2022/06/02 06:47:51;;;;;;;13.05;7.43;;;12.20;99.90;;;;;;5096488;28;20126;-76
2022/06/02 06:50:25;;;;;;;14.07;6.40;;;12.30;99.90;;;;;;5094654;28;20511;-75
2022/06/02 06:53:09;;;;;;;10.70;6.13;;;12.50;99.90;;;;;;5096471;28;20270;-74
2022/06/02 06:55:49;;;;;;;9.18;5.38;;;12.60;99.90;;;;;;5096548;28;20127;-75
2022/06/02 06:58:53;;;;;;;12.55;4.97;;;12.70;99.90;;;;;;5098740;28;20090;-75
2022/06/02 07:01:25;;;;;;;9.05;4.60;;;12.80;99.90;;;;;;5096615;28;20052;-74
2022/06/02 07:04:00;;;;;;;9.23;4.60;;;13.00;99.90;;;;;;5096723;28;20051;-74
2022/06/02 07:06:54;;;;;;;8.40;3.50;;;13.20;99.90;;;;;;5078896;28;20063;-74
2022/06/02 07:09:41;;;;;;;8.85;3.95;;;13.20;99.90;;;;;;5096958;28;20047;-75
2022/06/02 07:15:07;;;;;;;10.15;4.25;;;13.70;99.90;;;;;;5096163;28;20055;-75
2022/06/02 07:18:12;;;;;;;10.00;4.20;;;13.90;99.90;;;;;;5093754;28;20078;-75
2022/06/02 07:21:07;;;;;;;12.10;4.90;;;14.00;99.90;;;;;;5095013;28;20097;-75
2022/06/02 07:24:13;;;;;;;8.05;3.55;;;13.90;99.90;;;;;;5096199;28;20109;-74
2022/06/02 07:27:05;;;;;;;7.22;3.28;;;13.90;99.90;;;;;;5096620;28;20387;-75
2022/06/02 07:30:05;;;;;;;7.50;3.45;;;13.70;99.90;;;;;;5097856;28;20044;-76
2022/06/02 07:32:34;;;;;;;9.60;3.42;;;14.20;99.90;;;;;;5097102;28;20534;-77
2022/06/02 07:35:35;;;;;;;8.25;3.47;;;14.50;99.90;;;;;;5094515;28;20056;-76
2022/06/02 07:38:38;;;;;;;8.25;3.08;;;14.50;99.90;;;;;;5094003;28;20105;-75
2022/06/02 07:41:32;;;;;;;8.68;3.33;;;14.40;99.90;;;;;;5092721;28;20102;-76
2022/06/02 07:44:18;;;;;;;5.93;3.00;;;14.30;99.90;;;;;;5093884;28;20050;-76
2022/06/02 07:47:19;;;;;;;6.53;2.90;;;14.30;99.90;;;;;;5092698;28;20065;-80
2022/06/02 07:50:17;;;;;;;6.28;2.80;;;14.50;99.90;;;;;;5097884;28;20146;-77
2022/06/02 07:53:05;;;;;;;7.53;3.38;;;14.60;99.90;;;;;;5094285;28;20048;-75
2022/06/02 07:55:34;;;;;;;7.57;3.08;;;14.60;99.90;;;;;;5093638;28;20124;-75
2022/06/02 07:58:27;;;;;;;8.02;3.67;;;14.60;99.90;;;;;;5093054;28;20070;-75
2022/06/02 08:01:11;;;;;;;4.82;1.95;;;14.60;99.90;;;;;;5093044;28;20069;-76
2022/06/02 08:03:37;;;;;;;5.20;2.28;;;14.60;99.90;;;;;;5093464;28;20044;-74
2022/06/02 08:06:16;;;;;;;5.55;2.35;;;14.60;99.90;;;;;;5094171;28;20047;-77
2022/06/02 08:08:58;;;;;;;7.75;3.08;;;14.70;99.90;;;;;;5092701;28;20044;-76
2022/06/02 08:11:49;;;;;;;5.85;2.90;;;15.00;99.90;;;;;;5092595;28;20044;-75
2022/06/02 08:14:49;;;;;;;5.25;2.40;;;15.30;99.90;;;;;;5110247;28;20475;-77
2022/06/02 08:17:40;;;;;;;6.00;2.80;;;15.60;99.90;;;;;;5093837;28;20051;-75
2022/06/02 08:20:23;;;;;;;8.52;2.40;;;15.30;99.90;;;;;;5094678;28;20056;-76
2022/06/02 08:23:05;;;;;;;7.93;2.90;;;15.30;99.90;;;;;;5092334;28;20082;-77
2022/06/02 08:25:47;;;;;;;8.35;3.10;;;15.30;99.90;;;;;;5092891;28;20044;-75
2022/06/02 08:28:28;;;;;;;5.10;2.80;;;15.60;99.90;;;;;;5092656;28;20055;-75
2022/06/02 08:31:10;;;;;;;5.93;2.00;;;16.00;99.90;;;;;;5093133;28;20059;-77
2022/06/02 08:34:11;;;;;;;5.82;2.20;;;16.10;99.90;;;;;;5093425;28;20109;-75
2022/06/02 08:36:56;;;;;;;6.82;2.55;;;15.90;99.90;;;;;;5061024;28;20060;-76
2022/06/02 08:39:30;;;;;;;5.55;2.85;;;15.80;99.90;;;;;;5094026;28;20048;-76
2022/06/02 08:42:21;;;;;;;5.65;2.55;;;15.80;99.90;;;;;;5075806;28;20048;-77
2022/06/02 08:45:02;;;;;;;5.50;1.95;;;15.70;99.90;;;;;;5094163;28;20055;-77
2022/06/02 08:47:57;;;;;;;12.25;2.70;;;15.80;99.90;;;;;;5096018;28;20048;-75
2022/06/02 08:50:44;;;;;;;12.50;2.78;;;15.70;99.90;;;;;;5096489;28;20056;-76
2022/06/02 08:53:57;;;;;;;4.18;2.13;;;15.70;99.90;;;;;;5096891;28;20044;-76
2022/06/02 08:56:53;;;;;;;4.65;1.52;;;15.80;99.90;;;;;;5034300;28;20041;-76
2022/06/02 08:59:50;;;;;;;5.63;1.88;;;15.90;99.90;;;;;;5017805;28;20045;-77
2022/06/02 09:02:21;;;;;;;5.07;2.13;;;15.90;99.90;;;;;;5085797;28;20063;-78
2022/06/02 09:05:24;;;;;;;5.25;2.47;;;15.90;99.90;;;;;;5097306;28;20044;-78
2022/06/02 09:08:20;;;;;;;4.57;2.20;;;16.10;99.90;;;;;;5095742;28;20044;-77
2022/06/02 09:11:14;;;;;;;4.88;2.30;;;16.40;99.90;;;;;;5095152;28;20048;-76
2022/06/02 09:14:01;;;;;;;4.65;2.10;;;16.20;99.90;;;;;;5096345;28;20048;-75
2022/06/02 09:16:36;;;;;;;6.03;2.70;;;16.50;99.90;;;;;;5113566;28;20044;-76
2022/06/02 09:19:14;;;;;;;4.95;2.08;;;16.70;99.90;;;;;;5097936;28;20058;-76
2022/06/02 09:22:12;;;;;;;4.97;2.20;;;16.80;99.90;;;;;;5096961;28;20052;-77
2022/06/02 09:25:18;;;;;;;6.07;3.00;;;17.00;99.90;;;;;;5097334;28;20225;-76
2022/06/02 09:27:47;;;;;;;7.78;2.60;;;;;;;;;;5097465;28;20395;-76
2022/06/02 09:30:38;;;;;;;6.60;2.05;;;17.30;97.10;;;;;;5079272;28;20070;-77
2022/06/02 09:33:43;;;;;;;5.60;2.47;;;17.40;98.40;;;;;;5095805;28;20044;-76
2022/06/02 09:36:42;;;;;;;5.40;2.58;;;17.30;95.60;;;;;;5098007;28;20078;-74
2022/06/02 09:39:18;;;;;;;4.03;2.00;;;17.30;95.80;;;;;;5098010;28;20052;-74
2022/06/02 09:42:02;;;;;;;4.33;2.40;;;17.50;95.20;;;;;;5097028;28;20044;-76
2022/06/02 09:44:53;;;;;;;6.88;3.03;;;17.50;95.70;;;;;;5095462;28;20286;-76
2022/06/02 09:47:28;;;;;;;6.47;2.50;;;17.80;94.40;;;;;;5094677;28;20054;-75
2022/06/02 09:50:18;;;;;;;7.45;3.03;;;18.10;95.40;;;;;;5095161;28;20059;-75
2022/06/02 09:53:22;;;;;;;7.10;3.42;;;18.40;95.00;;;;;;5095587;28;20044;-75
2022/06/02 09:56:09;;;;;;;7.63;2.90;;;18.10;93.90;;;;;;5061496;28;20083;-76
2022/06/02 09:58:55;;;;;;;7.40;3.05;;;18.20;93.60;;;;;;5096381;28;20399;-75
2022/06/02 10:01:31;;;;;;;4.97;2.63;;;18.30;93.60;;;;;;5095513;28;20044;-75
2022/06/02 10:04:21;;;;;;;4.57;2.47;;;18.30;93.40;;;;;;5096043;28;20044;-74
2022/06/02 10:07:17;;;;;;;5.93;2.40;;;17.70;90.20;;;;;;5095549;28;20050;-74
2022/06/02 10:10:00;;;;;;;4.43;2.10;;;17.80;91.60;;;;;;5077577;28;20044;-75
2022/06/02 10:13:02;;;;;;;7.82;2.13;;;18.10;91.60;;;;;;5077854;28;20056;-76
2022/06/02 10:15:49;;;;;;;4.93;2.10;;;17.90;91.00;;;;;;5095549;28;20048;-75
2022/06/02 10:18:24;;;;;;;5.47;2.58;;;17.90;91.50;;;;;;5095616;28;20056;-74
2022/06/02 10:21:11;;;;;;;4.30;1.95;;;18.00;92.10;;;;;;5095996;28;20060;-75
2022/06/02 10:24:03;;;;;;;4.07;2.05;;;18.10;92.50;;;;;;5095924;28;20052;-75
2022/06/02 10:27:06;;;;;;;5.07;2.15;;;18.40;88.90;;;;;;5076701;28;20040;-76
2022/06/02 10:30:10;;;;;;;4.35;2.17;;;18.50;87.90;;;;;;5094259;28;20055;-77
2022/06/02 10:32:56;;;;;;;3.38;1.20;;;18.80;87.70;;;;;;5094750;28;20052;-75
2022/06/02 10:36:03;;;;;;;5.63;1.50;;;18.40;78.80;;;;;;5095264;28;20177;-76
2022/06/02 10:39:04;;;;;;;5.68;1.73;;;18.60;85.00;;;;;;5077508;28;20052;-75
2022/06/02 10:41:48;;;;;;;4.40;1.35;;;19.00;88.20;;;;;;5033482;28;20120;-74
2022/06/02 10:44:47;;;;;;;6.82;2.28;;;19.20;83.70;;;;;;5087666;28;20052;-76
2022/06/02 10:47:51;;;;;;;7.10;1.98;;;18.70;84.50;;;;;;5095105;28;20040;-76
2022/06/02 10:50:20;;;;;;;3.95;2.13;;;18.20;85.60;;;;;;5094095;28;20130;-74
2022/06/02 10:53:04;;;;;;;11.65;2.30;;;18.10;87.90;;;;;;5094887;28;20047;-76
2022/06/02 10:55:55;;;;;;;3.25;1.63;;;18.10;88.10;;;;;;5094194;28;20048;-75
2022/06/02 10:58:54;;;;;;;4.03;1.83;;;18.30;84.50;;;;;;5076696;28;20044;-73
2022/06/02 11:01:41;;;;;;;5.13;2.42;;;18.40;84.30;;;;;;5081456;28;20098;-76
2022/06/02 11:04:25;;;;;;;5.22;1.80;;;18.60;85.30;;;;;;5095785;28;20048;-75
2022/06/02 11:07:29;;;;;;;4.70;2.10;;;18.80;85.50;;;;;;5094051;28;20044;-76
2022/06/02 11:10:25;;;;;;;5.82;2.65;;;18.50;78.60;;;;;;5094148;28;20058;-75
2022/06/02 11:13:27;;;;;;;4.95;2.67;;;18.70;83.40;;;;;;5094230;28;20136;-75
2022/06/02 11:15:59;;;;;;;5.10;2.30;;;18.70;84.40;;;;;;5094920;28;20047;-75
2022/06/02 11:19:02;;;;;;;5.90;2.60;;;18.50;83.80;;;;;;5094058;28;20044;-74
2022/06/02 11:22:07;;;;;;;5.63;2.70;;;18.10;84.50;;;;;;5094339;28;20044;-75
2022/06/02 11:24:50;;;;;;;3.83;2.25;;;17.70;84.20;;;;;;5094364;28;20055;-77
2022/06/02 11:27:43;;;;;;;5.35;2.63;;;17.40;84.70;;;;;;5094876;28;20040;-77
2022/06/02 11:30:08;;;;;;;5.13;2.30;;;17.70;85.80;;;;;;5093467;28;20484;-76
2022/06/02 11:33:01;;;;;;;5.20;2.37;;;17.80;86.70;;;;;;5093036;28;20200;-75
2022/06/02 11:35:57;;;;;;;8.30;2.50;;;17.80;85.30;;;;;;5092946;28;20044;-75
2022/06/02 11:38:35;;;;;;;4.85;2.05;;;18.00;87.40;;;;;;5094685;28;20073;-78
2022/06/02 11:41:12;;;;;;;6.40;2.10;;;18.30;85.70;;;;;;5076388;28;20051;-76
2022/06/02 11:44:01;;;;;;;4.80;2.00;;;18.40;86.00;;;;;;5076075;28;20052;-75
2022/06/02 11:46:41;;;;;;;4.70;2.22;;;18.70;80.80;;;;;;5081916;28;20056;-76
2022/06/02 11:49:26;;;;;;;5.88;2.10;;;19.00;82.40;;;;;;5076701;28;20494;-76
2022/06/02 11:52:11;;;;;;;5.47;2.30;;;18.90;78.40;;;;;;5094765;28;20048;-74
2022/06/02 11:55:14;;;;;;;9.45;2.92;;;18.90;80.70;;;;;;5093513;28;20043;-74
2022/06/02 11:58:02;;;;;;;3.33;1.80;;;18.80;82.70;;;;;;5093245;28;20036;-75
2022/06/02 12:00:46;;;;;;;2.95;1.88;;;18.80;83.80;;;;;;5076108;28;20435;-76
2022/06/02 12:03:50;;;;;;;5.07;1.90;;;18.80;84.00;;;;;;5093823;28;20075;-75
2022/06/02 12:06:38;;;;;;;5.53;2.40;;;19.20;83.90;;;;;;5093017;28;20135;-74
2022/06/02 12:09:25;;;;;;;4.15;2.30;;;19.10;79.40;;;;;;5093039;28;20044;-74
2022/06/02 12:12:15;;;;;;;5.15;2.42;;;18.70;81.40;;;;;;5093442;28;20044;-74
2022/06/02 12:15:00;;;;;;;3.83;1.90;;;18.70;81.40;;;;;;5110095;28;20044;-74
2022/06/02 12:17:44;;;;;;;3.92;1.80;;;18.60;80.90;;;;;;5092970;28;20048;-75
2022/06/02 12:20:16;;;;;;;5.00;1.90;;;18.60;81.40;;;;;;5078708;28;20399;-76
2022/06/02 12:23:01;;;;;;;4.07;1.85;;;18.60;82.30;;;;;;5100960;28;20048;-75
2022/06/02 12:25:49;;;;;;;3.88;1.90;;;18.30;80.70;;;;;;5099891;28;20043;-77
2022/06/02 12:28:37;;;;;;;7.60;2.00;;;18.50;83.00;;;;;;5101511;28;20098;-76
2022/06/02 12:31:34;;;;;;;3.42;1.83;;;18.50;82.60;;;;;;5100412;28;20055;-76
2022/06/02 12:34:28;;;;;;;3.97;1.70;;;18.80;83.00;;;;;;5100711;28;20040;-78
2022/06/02 12:37:10;;;;;;;5.57;1.55;;;19.30;76.90;;;;;;5082992;28;20044;-76
2022/06/02 12:40:19;;;;;;;3.55;1.50;;;19.70;81.10;;;;;;5101495;28;20115;-76
2022/06/02 12:43:29;;;;;;;3.47;1.35;;;20.20;80.10;;;;;;5082442;28;20086;-75
2022/06/02 12:46:32;;;;;;;5.25;1.42;;;20.40;77.40;;;;;;5071919;28;20146;-74
2022/06/02 12:49:00;;;;;;;3.67;1.38;;;20.90;77.70;;;;;;5100361;28;20064;-76
2022/06/02 12:52:19;;;;;;;3.13;1.10;;;20.30;73.10;;;;;;5082657;28;20441;-75
2022/06/02 12:54:59;;;;;;;4.25;1.17;;;20.10;72.70;;;;;;5099675;28;20054;-75
2022/06/02 12:58:05;;;;;;;3.17;1.15;;;20.00;73.20;;;;;;5099569;28;20040;-75
2022/06/02 13:01:33;;;;;;;4.47;1.00;;;19.10;74.50;;;;;;5097979;28;20048;-76
2022/06/02 13:04:04;;;;;;;4.60;1.48;;;18.90;75.90;;;;;;5037506;28;20132;-76
2022/06/02 13:07:03;;;;;;;3.67;1.20;;;19.10;77.10;;;;;;5037771;28;20049;-78
2022/06/02 13:09:53;;;;;;;3.55;1.17;;;18.90;74.60;;;;;;5075727;28;20151;-75
2022/06/02 13:12:53;;;;;;;3.70;0.98;;;19.10;76.60;;;;;;5099011;28;20059;-76
2022/06/02 13:15:42;;;;;;;3.10;1.00;;;18.80;74.50;;;;;;5100403;28;20329;-76
2022/06/02 13:18:37;;;;;;;4.20;1.45;;;18.90;75.50;;;;;;5099992;28;20464;-76
2022/06/02 13:21:24;;;;;;;5.63;1.00;;;18.80;75.30;;;;;;5098150;28;20058;-75
2022/06/02 13:24:27;;;;;;;4.15;1.10;;;19.00;77.10;;;;;;5100252;28;20486;-75
2022/06/02 13:27:38;;;;;;;3.13;1.15;;;19.40;77.20;;;;;;5100500;28;20047;-75
2022/06/02 13:30:10;;;;;;;2.95;1.05;;;19.80;75.00;;;;;;5037392;28;20057;-75
2022/06/02 13:33:22;;;;;;;3.05;0.90;;;20.00;72.00;;;;;;5017794;28;20084;-77
2022/06/02 13:35:59;;;;;;;2.28;1.00;;;19.70;72.80;;;;;;5081567;28;20091;-76
2022/06/02 13:38:33;;;;;;;43.92;3.83;;;19.60;72.80;;;;;;5078601;28;20440;-75
2022/06/02 13:41:29;;;;;;;3.78;1.13;;;19.00;71.60;;;;;;5096948;28;20044;-78
2022/06/02 13:44:12;;;;;;;3.30;1.27;;;19.30;73.90;;;;;;5079483;28;20048;-76
2022/06/02 13:46:56;;;;;;;4.32;1.45;;;19.20;74.70;;;;;;5097428;28;20048;-75
2022/06/02 13:49:39;;;;;;;5.13;1.45;;;19.10;74.90;;;;;;5097035;28;20052;-78
2022/06/02 13:52:24;;;;;;;3.90;1.42;;;19.10;75.00;;;;;;5097950;28;20051;-77
2022/06/02 13:58:18;;;;;;;3.63;1.30;;;18.70;75.10;;;;;;5096491;28;20051;-76
2022/06/02 14:01:21;;;;;;;3.00;1.02;;;18.50;74.90;;;;;;5095834;28;20446;-76
2022/06/02 14:04:20;;;;;;;2.80;1.20;;;18.60;75.00;;;;;;5096350;28;20437;-76
2022/06/02 14:07:24;;;;;;;2.95;1.00;;;18.80;75.60;;;;;;5096853;28;20044;-74
2022/06/02 14:09:55;;;;;;;2.70;1.08;;;19.10;75.30;;;;;;5094781;28;20098;-76
2022/06/02 14:12:39;;;;;;;6.88;1.35;;;19.20;75.20;;;;;;5096658;28;20043;-77
2022/06/02 14:15:50;;;;;;;4.15;1.27;;;19.50;76.30;;;;;;5098441;28;20462;-75
2022/06/02 14:18:24;;;;;;;8.32;1.17;;;19.50;74.90;;;;;;5035530;28;20045;-76
2022/06/02 14:21:14;;;;;;;5.15;1.13;;;19.60;72.70;;;;;;5067732;28;20066;-76
2022/06/02 14:23:59;;;;;;;3.92;1.40;;;19.60;73.20;;;;;;5077825;28;20052;-76
2022/06/02 14:26:37;;;;;;;3.78;1.58;;;19.50;72.30;;;;;;5096578;28;20040;-76
2022/06/02 14:29:22;;;;;;;4.88;1.40;;;19.90;71.30;;;;;;5095426;28;20395;-74
2022/06/02 14:32:00;;;;;;;3.03;1.13;;;20.20;71.70;;;;;;5079272;28;20135;-76
2022/06/02 14:34:31;;;;;;;4.35;1.10;;;20.30;70.40;;;;;;5096159;28;20048;-76